Wincanton — V7BU3 — position and weather

sailwx.info

Track history (hours):
 
Tides and Currents Weather Stations Pressure Air Temp Water Temp Dewpoint Dewpoint Depression Visibility Wind Speed Wind Dir Waves Ship Positions

Wincanton

Last reported at 2018-May-22 01:31 UTC. Time now 2018-May-23 03:40 UTC.
Position S 27°39' E 153°47'.

Length 120 m; draft 7.8 m.

Type: Ship (hazmat cat B). MMSI: 538005199.

Date/timePositionNaut miles runAvg speedWind from/ knotsBaromVisibWave heightAir tempDewpointWater temp
2018-May-22 01:31S 27°39' E 153°47'013.6
2018-May-22 01:30S 27°39' E 153°47'910.0
2018-May-22 00:39S 27°48' E 153°47'110.1
2018-May-22 00:30S 27°49' E 153°47'510.2
2018-May-21 23:58S 27°55' E 153°48'5 9.9
2018-May-21 23:30S 27°59' E 153°48'6 9.7
2018-May-21 22:54S 28°05' E 153°49'4 9.4
2018-May-21 22:30S 28°09' E 153°49'269 8.2
2018-May-20 13:46S 32°31' E 152°39'2 8.3
2018-May-20 13:30S 32°33' E 152°38'4 8.6
2018-May-20 13:00S 32°37' E 152°35'4 8.5
2018-May-20 12:30S 32°41' E 152°33'4 8.1
2018-May-20 12:00S 32°44' E 152°30'4 8.2
2018-May-20 11:30S 32°48' E 152°28'4 7.9
2018-May-20 11:00S 32°50' E 152°24'4 9.0
2018-May-20 10:30S 32°51' E 152°19'5 9.1
2018-May-20 10:00S 32°52' E 152°14'4 9.0
2018-May-20 09:30S 32°54' E 152°09'5 9.1
2018-May-20 09:00S 32°55' E 152°03'4 8.9
2018-May-20 08:30S 32°56' E 151°58'5 9.2
2018-May-20 08:00S 32°55' E 151°53'4 8.2
2018-May-20 07:30S 32°55' E 151°48'2 0.1
2018-May-19 00:29S 32°54' E 151°46'0 0.0
2018-May-19 00:00S 32°54' E 151°46'1 2.7
2018-May-18 23:30S 32°55' E 151°47'3 6.1
2018-May-18 22:59S 32°55' E 151°50'3 6.2
2018-May-18 22:30S 32°58' E 151°52'2 3.6
2018-May-18 22:00S 32°59' E 151°52'3 7.0
2018-May-18 21:30S 33°01' E 151°48'0 0.4
2018-May-18 20:59S 33°01' E 151°48'0 0.0
2018-May-17 21:56S 33°01' E 151°48'0 0.0
2018-May-17 21:05S 33°01' E 151°48'0 0.0
2018-May-17 20:50S 33°01' E 151°48'0 0.1
2018-May-17 20:20S 33°01' E 151°48'0 0.0
2018-May-17 19:38S 33°01' E 151°48'0 0.0
2018-May-17 19:29S 33°01' E 151°48'0 0.0
2018-May-17 18:56S 33°01' E 151°48'0 0.1
2018-May-17 18:26S 33°01' E 151°48'0 0.0
2018-May-17 17:56S 33°01' E 151°48'0 0.1
2018-May-17 17:29S 33°01' E 151°48'0 0.0
2018-May-17 16:59S 33°01' E 151°48'0 0.1
2018-May-17 16:29S 33°01' E 151°48'0 0.0
2018-May-17 15:56S 33°01' E 151°48'0 0.0
2018-May-17 15:29S 33°01' E 151°48'0 0.0
2018-May-17 14:59S 33°01' E 151°48'0 0.0
2018-May-17 14:17S 33°01' E 151°48'0 0.0
2018-May-17 13:59S 33°01' E 151°48'0 0.0
2018-May-17 13:29S 33°01' E 151°48'0 0.0
2018-May-17 12:59S 33°01' E 151°48'0 0.0
2018-May-17 12:26S 33°01' E 151°48'0 0.0
2018-May-17 11:50S 33°01' E 151°48'0 0.0
2018-May-17 11:17S 33°01' E 151°48'0 0.0
2018-May-17 10:59S 33°01' E 151°48'0 0.0
2018-May-17 10:26S 33°01' E 151°48'0 0.0
2018-May-15 11:35S 33°01' E 151°48'1 8.7
2018-May-15 11:30S 33°02' E 151°48'8 3.2
2018-May-15 08:55S 33°04' E 151°57'1 2.6
2018-May-15 08:29S 33°03' E 151°58'1 1.1
2018-May-15 07:59S 33°03' E 151°58'1 1.1
2018-May-15 07:29S 33°04' E 151°59'1 1.0
2018-May-15 06:59S 33°04' E 151°59'1 1.1
2018-May-15 06:30S 33°05' E 151°59'1 1.0
2018-May-15 06:00S 33°05' E 151°59'1 1.2
2018-May-15 05:30S 33°06' E 151°60'1 1.2
2018-May-15 05:00S 33°06' E 152°00'1 1.2
2018-May-15 04:28S 33°07' E 152°00'1 1.2
2018-May-15 04:00S 33°07' E 152°00'1 1.4
2018-May-15 03:30S 33°08' E 152°00'1 1.6
2018-May-15 03:00S 33°09' E 152°00'5 0.5
2018-May-14 17:44S 33°06' E 152°05'0 1.1
2018-May-14 17:30S 33°06' E 152°06'3 6.5
2018-May-14 17:00S 33°10' E 152°05'3 6.5
2018-May-14 16:30S 33°13' E 152°05'3 6.4
2018-May-14 15:58S 33°16' E 152°04'24 1.1
2018-May-13 18:17S 33°31' E 151°41'1 3.6
2018-May-13 17:54S 33°29' E 151°42'25 3.0
2018-May-13 09:39S 33°10' E 152°00'1 3.8
2018-May-13 09:26S 33°09' E 152°00'2 3.8
2018-May-13 09:00S 33°07' E 152°00'2 4.0
2018-May-13 08:29S 33°06' E 152°02'2 4.4
2018-May-13 08:00S 33°04' E 152°01'2 4.6
2018-May-13 07:30S 33°01' E 152°01'3 5.1
2018-May-13 07:00S 32°59' E 152°01'2 3.8
2018-May-13 06:30S 32°57' E 152°00'2 4.4
2018-May-13 06:00S 32°56' E 152°03'2 4.4
2018-May-13 05:30S 32°55' E 152°05'2 4.8
2018-May-13 05:00S 32°55' E 152°08'3 6.2
2018-May-13 04:30S 32°54' E 152°12'3 5.7
2018-May-13 04:00S 32°53' E 152°15'3 5.5
2018-May-13 03:30S 32°52' E 152°18'3 6.5
2018-May-13 03:00S 32°50' E 152°21'3 6.6
2018-May-13 02:30S 32°49' E 152°25'3 5.8
2018-May-13 02:00S 32°47' E 152°28'3 5.0
2018-May-13 01:30S 32°45' E 152°29'2 4.9
2018-May-13 01:00S 32°43' E 152°31'3 5.1
2018-May-13 00:30S 32°41' E 152°33'3 5.1
2018-May-13 00:00S 32°39' E 152°34'2 4.7
2018-May-12 23:30S 32°37' E 152°35'3 5.2
2018-May-12 22:59S 32°35' E 152°37'  
Track history (hours):
 
Tides and Currents Weather Stations Pressure Air Temp Water Temp Dewpoint Dewpoint Depression Visibility Wind Speed Wind Dir Waves Ship Positions

Wincanton

Last reported at 2018-May-22 01:31 UTC. Time now 2018-May-23 03:40 UTC.
Position S 27°39' E 153°47'.

Length 120 m; draft 7.8 m.

Type: Ship (hazmat cat B). MMSI: 538005199.

Date/timePositionNaut miles runAvg speedWind from/ knotsBaromVisibWave heightAir tempDewpointWater temp
2018-May-22 01:31S 27°39' E 153°47'013.6
2018-May-22 01:30S 27°39' E 153°47'910.0
2018-May-22 00:39S 27°48' E 153°47'110.1
2018-May-22 00:30S 27°49' E 153°47'510.2
2018-May-21 23:58S 27°55' E 153°48'5 9.9
2018-May-21 23:30S 27°59' E 153°48'6 9.7
2018-May-21 22:54S 28°05' E 153°49'4 9.4
2018-May-21 22:30S 28°09' E 153°49'269 8.2
2018-May-20 13:46S 32°31' E 152°39'2 8.3
2018-May-20 13:30S 32°33' E 152°38'4 8.6
2018-May-20 13:00S 32°37' E 152°35'4 8.5
2018-May-20 12:30S 32°41' E 152°33'4 8.1
2018-May-20 12:00S 32°44' E 152°30'4 8.2
2018-May-20 11:30S 32°48' E 152°28'4 7.9
2018-May-20 11:00S 32°50' E 152°24'4 9.0
2018-May-20 10:30S 32°51' E 152°19'5 9.1
2018-May-20 10:00S 32°52' E 152°14'4 9.0
2018-May-20 09:30S 32°54' E 152°09'5 9.1
2018-May-20 09:00S 32°55' E 152°03'4 8.9
2018-May-20 08:30S 32°56' E 151°58'5 9.2
2018-May-20 08:00S 32°55' E 151°53'4 8.2
2018-May-20 07:30S 32°55' E 151°48'2 0.1
2018-May-19 00:29S 32°54' E 151°46'0 0.0
2018-May-19 00:00S 32°54' E 151°46'1 2.7
2018-May-18 23:30S 32°55' E 151°47'3 6.1
2018-May-18 22:59S 32°55' E 151°50'3 6.2
2018-May-18 22:30S 32°58' E 151°52'2 3.6
2018-May-18 22:00S 32°59' E 151°52'3 7.0
2018-May-18 21:30S 33°01' E 151°48'0 0.4
2018-May-18 20:59S 33°01' E 151°48'0 0.0
2018-May-17 21:56S 33°01' E 151°48'0 0.0
2018-May-17 21:05S 33°01' E 151°48'0 0.0
2018-May-17 20:50S 33°01' E 151°48'0 0.1
2018-May-17 20:20S 33°01' E 151°48'0 0.0
2018-May-17 19:38S 33°01' E 151°48'0 0.0
2018-May-17 19:29S 33°01' E 151°48'0 0.0
2018-May-17 18:56S 33°01' E 151°48'0 0.1
2018-May-17 18:26S 33°01' E 151°48'0 0.0
2018-May-17 17:56S 33°01' E 151°48'0 0.1
2018-May-17 17:29S 33°01' E 151°48'0 0.0
2018-May-17 16:59S 33°01' E 151°48'0 0.1
2018-May-17 16:29S 33°01' E 151°48'0 0.0
2018-May-17 15:56S 33°01' E 151°48'0 0.0
2018-May-17 15:29S 33°01' E 151°48'0 0.0
2018-May-17 14:59S 33°01' E 151°48'0 0.0
2018-May-17 14:17S 33°01' E 151°48'0 0.0
2018-May-17 13:59S 33°01' E 151°48'0 0.0
2018-May-17 13:29S 33°01' E 151°48'0 0.0
2018-May-17 12:59S 33°01' E 151°48'0 0.0
2018-May-17 12:26S 33°01' E 151°48'0 0.0
2018-May-17 11:50S 33°01' E 151°48'0 0.0
2018-May-17 11:17S 33°01' E 151°48'0 0.0
2018-May-17 10:59S 33°01' E 151°48'0 0.0
2018-May-17 10:26S 33°01' E 151°48'0 0.0
2018-May-15 11:35S 33°01' E 151°48'1 8.7
2018-May-15 11:30S 33°02' E 151°48'8 3.2
2018-May-15 08:55S 33°04' E 151°57'1 2.6
2018-May-15 08:29S 33°03' E 151°58'1 1.1
2018-May-15 07:59S 33°03' E 151°58'1 1.1
2018-May-15 07:29S 33°04' E 151°59'1 1.0
2018-May-15 06:59S 33°04' E 151°59'1 1.1
2018-May-15 06:30S 33°05' E 151°59'1 1.0
2018-May-15 06:00S 33°05' E 151°59'1 1.2
2018-May-15 05:30S 33°06' E 151°60'1 1.2
2018-May-15 05:00S 33°06' E 152°00'1 1.2
2018-May-15 04:28S 33°07' E 152°00'1 1.2
2018-May-15 04:00S 33°07' E 152°00'1 1.4
2018-May-15 03:30S 33°08' E 152°00'1 1.6
2018-May-15 03:00S 33°09' E 152°00'5 0.5
2018-May-14 17:44S 33°06' E 152°05'0 1.1
2018-May-14 17:30S 33°06' E 152°06'3 6.5
2018-May-14 17:00S 33°10' E 152°05'3 6.5
2018-May-14 16:30S 33°13' E 152°05'3 6.4
2018-May-14 15:58S 33°16' E 152°04'24 1.1
2018-May-13 18:17S 33°31' E 151°41'1 3.6
2018-May-13 17:54S 33°29' E 151°42'25 3.0
2018-May-13 09:39S 33°10' E 152°00'1 3.8
2018-May-13 09:26S 33°09' E 152°00'2 3.8
2018-May-13 09:00S 33°07' E 152°00'2 4.0
2018-May-13 08:29S 33°06' E 152°02'2 4.4
2018-May-13 08:00S 33°04' E 152°01'2 4.6
2018-May-13 07:30S 33°01' E 152°01'3 5.1
2018-May-13 07:00S 32°59' E 152°01'2 3.8
2018-May-13 06:30S 32°57' E 152°00'2 4.4
2018-May-13 06:00S 32°56' E 152°03'2 4.4
2018-May-13 05:30S 32°55' E 152°05'2 4.8
2018-May-13 05:00S 32°55' E 152°08'3 6.2
2018-May-13 04:30S 32°54' E 152°12'3 5.7
2018-May-13 04:00S 32°53' E 152°15'3 5.5
2018-May-13 03:30S 32°52' E 152°18'3 6.5
2018-May-13 03:00S 32°50' E 152°21'3 6.6
2018-May-13 02:30S 32°49' E 152°25'3 5.8
2018-May-13 02:00S 32°47' E 152°28'3 5.0
2018-May-13 01:30S 32°45' E 152°29'2 4.9
2018-May-13 01:00S 32°43' E 152°31'3 5.1
2018-May-13 00:30S 32°41' E 152°33'3 5.1
2018-May-13 00:00S 32°39' E 152°34'2 4.7
2018-May-12 23:30S 32°37' E 152°35'3 5.2
2018-May-12 22:59S 32°35' E 152°37'  

Dump ship's entire track history